sensor_id;sensor_type;location;lat;lon;timestamp;P1;durP1;ratioP1;P2;durP2;ratioP2
83814;SDS011;73829;53.826;-3.034;2023-12-04T00:03:27;3.50;;;1.50;;
83814;SDS011;73829;53.826;-3.034;2023-12-04T00:08:27;2.80;;;1.20;;
83814;SDS011;73829;53.826;-3.034;2023-12-04T00:13:27;3.00;;;1.20;;
83814;SDS011;73829;53.826;-3.034;2023-12-04T00:18:27;3.20;;;1.30;;
83814;SDS011;73829;53.826;-3.034;2023-12-04T00:20:58;2.80;;;1.00;;
83814;SDS011;73829;53.826;-3.034;2023-12-04T00:23:29;3.40;;;1.20;;
83814;SDS011;73829;53.826;-3.034;2023-12-04T00:28:30;3.20;;;1.10;;
83814;SDS011;73829;53.826;-3.034;2023-12-04T00:31:05;3.30;;;1.50;;
83814;SDS011;73829;53.826;-3.034;2023-12-04T00:33:37;3.40;;;1.30;;
83814;SDS011;73829;53.826;-3.034;2023-12-04T00:38:38;3.50;;;1.30;;
83814;SDS011;73829;53.826;-3.034;2023-12-04T00:43:39;2.80;;;1.10;;
83814;SDS011;73829;53.826;-3.034;2023-12-04T00:46:10;3.10;;;1.30;;
83814;SDS011;73829;53.826;-3.034;2023-12-04T00:48:41;3.70;;;1.20;;
83814;SDS011;73829;53.826;-3.034;2023-12-04T00:51:14;2.90;;;1.10;;
83814;SDS011;73829;53.826;-3.034;2023-12-04T00:53:44;2.90;;;1.10;;
83814;SDS011;73829;53.826;-3.034;2023-12-04T00:56:15;3.30;;;1.30;;
83814;SDS011;73829;53.826;-3.034;2023-12-04T00:58:48;2.70;;;1.10;;
83814;SDS011;73829;53.826;-3.034;2023-12-04T01:01:19;3.20;;;1.10;;
83814;SDS011;73829;53.826;-3.034;2023-12-04T01:06:22;2.60;;;0.90;;
83814;SDS011;73829;53.826;-3.034;2023-12-04T01:08:54;3.80;;;1.30;;
83814;SDS011;73829;53.826;-3.034;2023-12-04T01:11:25;2.90;;;1.10;;
83814;SDS011;73829;53.826;-3.034;2023-12-04T01:13:56;2.70;;;1.10;;
83814;SDS011;73829;53.826;-3.034;2023-12-04T01:18:56;3.20;;;1.10;;
83814;SDS011;73829;53.826;-3.034;2023-12-04T01:21:27;3.00;;;1.10;;
83814;SDS011;73829;53.826;-3.034;2023-12-04T01:23:58;2.70;;;1.00;;
83814;SDS011;73829;53.826;-3.034;2023-12-04T01:26:29;2.70;;;1.30;;
83814;SDS011;73829;53.826;-3.034;2023-12-04T01:31:30;2.20;;;0.90;;
83814;SDS011;73829;53.826;-3.034;2023-12-04T01:34:01;2.30;;;0.80;;
83814;SDS011;73829;53.826;-3.034;2023-12-04T01:36:32;2.60;;;0.90;;
83814;SDS011;73829;53.826;-3.034;2023-12-04T01:41:32;2.60;;;0.90;;
83814;SDS011;73829;53.826;-3.034;2023-12-04T01:46:33;2.80;;;0.90;;
83814;SDS011;73829;53.826;-3.034;2023-12-04T01:49:04;2.40;;;1.00;;
83814;SDS011;73829;53.826;-3.034;2023-12-04T01:51:35;2.40;;;1.00;;
83814;SDS011;73829;53.826;-3.034;2023-12-04T01:54:06;2.00;;;0.70;;
83814;SDS011;73829;53.826;-3.034;2023-12-04T01:56:38;3.10;;;1.00;;
83814;SDS011;73829;53.826;-3.034;2023-12-04T01:59:09;2.60;;;1.00;;
83814;SDS011;73829;53.826;-3.034;2023-12-04T02:01:40;2.60;;;1.00;;
83814;SDS011;73829;53.826;-3.034;2023-12-04T02:04:11;2.60;;;0.90;;
83814;SDS011;73829;53.826;-3.034;2023-12-04T02:06:42;2.50;;;1.10;;
83814;SDS011;73829;53.826;-3.034;2023-12-04T02:09:13;2.30;;;0.80;;
83814;SDS011;73829;53.826;-3.034;2023-12-04T02:11:44;2.30;;;0.90;;
83814;SDS011;73829;53.826;-3.034;2023-12-04T02:14:15;2.40;;;0.80;;
83814;SDS011;73829;53.826;-3.034;2023-12-04T02:19:16;2.50;;;0.70;;
83814;SDS011;73829;53.826;-3.034;2023-12-04T02:24:16;2.50;;;0.80;;
83814;SDS011;73829;53.826;-3.034;2023-12-04T02:29:20;2.10;;;0.80;;
83814;SDS011;73829;53.826;-3.034;2023-12-04T02:31:53;2.30;;;0.90;;
83814;SDS011;73829;53.826;-3.034;2023-12-04T02:34:26;2.10;;;0.70;;
83814;SDS011;73829;53.826;-3.034;2023-12-04T02:36:59;1.80;;;0.80;;
83814;SDS011;73829;53.826;-3.034;2023-12-04T02:39:31;2.60;;;0.90;;
83814;SDS011;73829;53.826;-3.034;2023-12-04T02:44:32;2.80;;;0.90;;
83814;SDS011;73829;53.826;-3.034;2023-12-04T02:47:03;2.00;;;0.70;;
83814;SDS011;73829;53.826;-3.034;2023-12-04T02:49:34;1.90;;;0.80;;
83814;SDS011;73829;53.826;-3.034;2023-12-04T02:52:05;1.90;;;0.70;;
83814;SDS011;73829;53.826;-3.034;2023-12-04T02:57:05;1.60;;;0.60;;
83814;SDS011;73829;53.826;-3.034;2023-12-04T02:59:36;1.80;;;0.70;;
83814;SDS011;73829;53.826;-3.034;2023-12-04T03:02:07;2.30;;;0.70;;
83814;SDS011;73829;53.826;-3.034;2023-12-04T03:07:07;1.90;;;0.70;;
83814;SDS011;73829;53.826;-3.034;2023-12-04T03:12:08;2.00;;;0.70;;
83814;SDS011;73829;53.826;-3.034;2023-12-04T03:17:08;2.00;;;0.70;;
83814;SDS011;73829;53.826;-3.034;2023-12-04T03:19:39;2.40;;;0.70;;
83814;SDS011;73829;53.826;-3.034;2023-12-04T03:24:41;1.20;;;0.60;;
83814;SDS011;73829;53.826;-3.034;2023-12-04T03:27:11;2.20;;;0.60;;
83814;SDS011;73829;53.826;-3.034;2023-12-04T03:32:12;2.00;;;0.70;;
83814;SDS011;73829;53.826;-3.034;2023-12-04T03:34:42;2.20;;;0.50;;
83814;SDS011;73829;53.826;-3.034;2023-12-04T03:39:43;1.70;;;0.60;;
83814;SDS011;73829;53.826;-3.034;2023-12-04T03:44:43;1.80;;;0.60;;
83814;SDS011;73829;53.826;-3.034;2023-12-04T03:47:14;1.40;;;0.60;;
83814;SDS011;73829;53.826;-3.034;2023-12-04T03:49:45;1.60;;;0.50;;
83814;SDS011;73829;53.826;-3.034;2023-12-04T03:52:15;1.80;;;0.70;;
83814;SDS011;73829;53.826;-3.034;2023-12-04T03:54:46;1.50;;;0.60;;
83814;SDS011;73829;53.826;-3.034;2023-12-04T03:59:46;1.30;;;0.50;;
83814;SDS011;73829;53.826;-3.034;2023-12-04T04:04:46;1.50;;;0.50;;
83814;SDS011;73829;53.826;-3.034;2023-12-04T04:09:46;1.40;;;0.50;;
83814;SDS011;73829;53.826;-3.034;2023-12-04T04:14:47;1.10;;;0.40;;
83814;SDS011;73829;53.826;-3.034;2023-12-04T04:19:47;1.20;;;0.50;;
83814;SDS011;73829;53.826;-3.034;2023-12-04T04:24:48;1.60;;;0.50;;
83814;SDS011;73829;53.826;-3.034;2023-12-04T04:27:19;1.10;;;0.40;;
83814;SDS011;73829;53.826;-3.034;2023-12-04T04:32:19;1.50;;;0.50;;
83814;SDS011;73829;53.826;-3.034;2023-12-04T04:37:20;1.50;;;0.50;;
83814;SDS011;73829;53.826;-3.034;2023-12-04T04:39:51;1.50;;;0.60;;
83814;SDS011;73829;53.826;-3.034;2023-12-04T04:42:22;1.40;;;0.50;;
83814;SDS011;73829;53.826;-3.034;2023-12-04T04:44:53;1.30;;;0.40;;
83814;SDS011;73829;53.826;-3.034;2023-12-04T04:49:53;1.00;;;0.30;;
83814;SDS011;73829;53.826;-3.034;2023-12-04T04:54:53;1.40;;;0.40;;
83814;SDS011;73829;53.826;-3.034;2023-12-04T04:59:53;1.30;;;0.40;;
83814;SDS011;73829;53.826;-3.034;2023-12-04T05:04:54;1.20;;;0.50;;
83814;SDS011;73829;53.826;-3.034;2023-12-04T05:07:25;1.20;;;0.50;;
83814;SDS011;73829;53.826;-3.034;2023-12-04T05:09:55;1.90;;;0.50;;
83814;SDS011;73829;53.826;-3.034;2023-12-04T05:14:56;1.10;;;0.40;;
83814;SDS011;73829;53.826;-3.034;2023-12-04T05:17:27;1.50;;;0.50;;
83814;SDS011;73829;53.826;-3.034;2023-12-04T05:19:58;1.00;;;0.40;;
83814;SDS011;73829;53.826;-3.034;2023-12-04T05:22:29;2.20;;;0.50;;
83814;SDS011;73829;53.826;-3.034;2023-12-04T05:24:59;1.90;;;0.70;;
83814;SDS011;73829;53.826;-3.034;2023-12-04T05:30:00;1.50;;;0.50;;
83814;SDS011;73829;53.826;-3.034;2023-12-04T05:32:31;1.00;;;0.40;;
83814;SDS011;73829;53.826;-3.034;2023-12-04T05:35:02;1.20;;;0.40;;
83814;SDS011;73829;53.826;-3.034;2023-12-04T05:37:33;1.30;;;0.50;;
83814;SDS011;73829;53.826;-3.034;2023-12-04T05:40:06;2.20;;;0.50;;
83814;SDS011;73829;53.826;-3.034;2023-12-04T05:42:38;1.50;;;0.40;;
83814;SDS011;73829;53.826;-3.034;2023-12-04T05:45:09;1.60;;;0.50;;
83814;SDS011;73829;53.826;-3.034;2023-12-04T05:47:40;1.50;;;0.40;;
83814;SDS011;73829;53.826;-3.034;2023-12-04T05:50:11;1.80;;;0.50;;
83814;SDS011;73829;53.826;-3.034;2023-12-04T05:52:42;1.70;;;0.60;;
83814;SDS011;73829;53.826;-3.034;2023-12-04T05:55:13;1.50;;;0.40;;
83814;SDS011;73829;53.826;-3.034;2023-12-04T05:57:44;1.80;;;0.50;;
83814;SDS011;73829;53.826;-3.034;2023-12-04T06:00:16;1.90;;;0.60;;
83814;SDS011;73829;53.826;-3.034;2023-12-04T06:02:47;1.60;;;0.50;;
83814;SDS011;73829;53.826;-3.034;2023-12-04T06:05:18;1.60;;;0.40;;
83814;SDS011;73829;53.826;-3.034;2023-12-04T06:07:50;1.30;;;0.40;;
83814;SDS011;73829;53.826;-3.034;2023-12-04T06:10:21;2.20;;;0.70;;
83814;SDS011;73829;53.826;-3.034;2023-12-04T06:12:52;1.80;;;0.60;;
83814;SDS011;73829;53.826;-3.034;2023-12-04T06:17:52;1.80;;;0.40;;
83814;SDS011;73829;53.826;-3.034;2023-12-04T06:22:53;1.60;;;0.40;;
83814;SDS011;73829;53.826;-3.034;2023-12-04T06:25:25;2.20;;;0.50;;
83814;SDS011;73829;53.826;-3.034;2023-12-04T06:27:57;1.50;;;0.50;;
83814;SDS011;73829;53.826;-3.034;2023-12-04T06:30:29;2.30;;;0.50;;
83814;SDS011;73829;53.826;-3.034;2023-12-04T06:33:01;1.20;;;0.40;;
83814;SDS011;73829;53.826;-3.034;2023-12-04T06:35:33;1.30;;;0.50;;
83814;SDS011;73829;53.826;-3.034;2023-12-04T06:38:06;1.30;;;0.40;;
83814;SDS011;73829;53.826;-3.034;2023-12-04T06:40:38;2.10;;;0.40;;
83814;SDS011;73829;53.826;-3.034;2023-12-04T06:43:09;1.60;;;0.50;;
83814;SDS011;73829;53.826;-3.034;2023-12-04T06:45:44;1.20;;;0.40;;
83814;SDS011;73829;53.826;-3.034;2023-12-04T06:48:15;2.00;;;0.60;;
83814;SDS011;73829;53.826;-3.034;2023-12-04T06:50:46;1.10;;;0.40;;
83814;SDS011;73829;53.826;-3.034;2023-12-04T06:53:17;1.80;;;0.50;;
83814;SDS011;73829;53.826;-3.034;2023-12-04T06:58:17;2.40;;;0.50;;
83814;SDS011;73829;53.826;-3.034;2023-12-04T07:03:18;1.60;;;0.50;;
83814;SDS011;73829;53.826;-3.034;2023-12-04T07:05:49;1.50;;;0.50;;
83814;SDS011;73829;53.826;-3.034;2023-12-04T07:08:20;1.60;;;0.50;;
83814;SDS011;73829;53.826;-3.034;2023-12-04T07:10:51;1.60;;;0.50;;
83814;SDS011;73829;53.826;-3.034;2023-12-04T07:13:22;1.80;;;0.50;;
83814;SDS011;73829;53.826;-3.034;2023-12-04T07:18:23;2.30;;;0.50;;
83814;SDS011;73829;53.826;-3.034;2023-12-04T07:20:54;1.70;;;0.50;;
83814;SDS011;73829;53.826;-3.034;2023-12-04T07:23:25;1.60;;;0.40;;
83814;SDS011;73829;53.826;-3.034;2023-12-04T07:28:25;1.00;;;0.30;;
83814;SDS011;73829;53.826;-3.034;2023-12-04T07:30:56;2.00;;;0.50;;
83814;SDS011;73829;53.826;-3.034;2023-12-04T07:33:27;1.00;;;0.30;;
83814;SDS011;73829;53.826;-3.034;2023-12-04T07:38:27;1.50;;;0.40;;
83814;SDS011;73829;53.826;-3.034;2023-12-04T07:43:27;1.60;;;0.40;;
83814;SDS011;73829;53.826;-3.034;2023-12-04T07:48:28;3.70;;;0.90;;
83814;SDS011;73829;53.826;-3.034;2023-12-04T07:50:59;2.30;;;0.80;;
83814;SDS011;73829;53.826;-3.034;2023-12-04T07:53:30;2.70;;;0.60;;
83814;SDS011;73829;53.826;-3.034;2023-12-04T07:56:02;3.70;;;0.90;;
83814;SDS011;73829;53.826;-3.034;2023-12-04T07:58:34;2.70;;;0.60;;
83814;SDS011;73829;53.826;-3.034;2023-12-04T08:03:34;2.60;;;0.80;;
83814;SDS011;73829;53.826;-3.034;2023-12-04T08:06:06;3.70;;;0.60;;
83814;SDS011;73829;53.826;-3.034;2023-12-04T08:08:37;3.00;;;0.80;;
83814;SDS011;73829;53.826;-3.034;2023-12-04T08:11:10;3.20;;;0.70;;
83814;SDS011;73829;53.826;-3.034;2023-12-04T08:13:41;3.20;;;0.70;;
83814;SDS011;73829;53.826;-3.034;2023-12-04T08:16:15;2.90;;;0.80;;
83814;SDS011;73829;53.826;-3.034;2023-12-04T08:18:47;3.90;;;0.90;;
83814;SDS011;73829;53.826;-3.034;2023-12-04T08:23:48;4.60;;;0.90;;
83814;SDS011;73829;53.826;-3.034;2023-12-04T08:26:22;3.80;;;0.80;;
83814;SDS011;73829;53.826;-3.034;2023-12-04T08:28:54;5.70;;;0.90;;
83814;SDS011;73829;53.826;-3.034;2023-12-04T08:31:25;4.90;;;0.90;;
83814;SDS011;73829;53.826;-3.034;2023-12-04T08:33:56;2.80;;;1.00;;
83814;SDS011;73829;53.826;-3.034;2023-12-04T08:36:27;4.50;;;1.10;;
83814;SDS011;73829;53.826;-3.034;2023-12-04T08:41:27;4.20;;;1.40;;
83814;SDS011;73829;53.826;-3.034;2023-12-04T08:43:58;4.20;;;1.20;;
83814;SDS011;73829;53.826;-3.034;2023-12-04T08:46:29;5.30;;;1.60;;
83814;SDS011;73829;53.826;-3.034;2023-12-04T08:51:29;7.00;;;2.00;;
83814;SDS011;73829;53.826;-3.034;2023-12-04T08:56:30;5.70;;;1.80;;
83814;SDS011;73829;53.826;-3.034;2023-12-04T09:01:30;5.60;;;1.50;;
83814;SDS011;73829;53.826;-3.034;2023-12-04T09:06:31;6.30;;;1.80;;
83814;SDS011;73829;53.826;-3.034;2023-12-04T09:11:32;7.50;;;2.50;;
83814;SDS011;73829;53.826;-3.034;2023-12-04T09:14:03;6.10;;;2.70;;
83814;SDS011;73829;53.826;-3.034;2023-12-04T09:16:34;7.40;;;3.20;;
83814;SDS011;73829;53.826;-3.034;2023-12-04T09:19:05;7.40;;;3.20;;
83814;SDS011;73829;53.826;-3.034;2023-12-04T09:24:05;7.00;;;3.40;;
83814;SDS011;73829;53.826;-3.034;2023-12-04T09:26:36;7.30;;;3.50;;
83814;SDS011;73829;53.826;-3.034;2023-12-04T09:31:36;5.70;;;2.90;;
83814;SDS011;73829;53.826;-3.034;2023-12-04T09:36:37;5.40;;;2.60;;
83814;SDS011;73829;53.826;-3.034;2023-12-04T09:39:08;6.40;;;2.40;;
83814;SDS011;73829;53.826;-3.034;2023-12-04T09:44:09;6.30;;;2.10;;
83814;SDS011;73829;53.826;-3.034;2023-12-04T09:46:40;6.80;;;2.50;;
83814;SDS011;73829;53.826;-3.034;2023-12-04T09:49:11;6.00;;;2.50;;
83814;SDS011;73829;53.826;-3.034;2023-12-04T09:51:44;6.90;;;2.40;;
83814;SDS011;73829;53.826;-3.034;2023-12-04T09:54:16;6.90;;;2.80;;
83814;SDS011;73829;53.826;-3.034;2023-12-04T09:56:48;7.70;;;2.30;;
83814;SDS011;73829;53.826;-3.034;2023-12-04T09:59:20;7.30;;;2.60;;
83814;SDS011;73829;53.826;-3.034;2023-12-04T10:01:54;8.00;;;2.70;;
83814;SDS011;73829;53.826;-3.034;2023-12-04T10:04:26;9.00;;;2.50;;
83814;SDS011;73829;53.826;-3.034;2023-12-04T10:06:56;6.50;;;2.50;;
83814;SDS011;73829;53.826;-3.034;2023-12-04T10:09:27;6.20;;;2.40;;
83814;SDS011;73829;53.826;-3.034;2023-12-04T10:14:28;6.30;;;2.50;;
83814;SDS011;73829;53.826;-3.034;2023-12-04T10:19:29;7.10;;;2.50;;
83814;SDS011;73829;53.826;-3.034;2023-12-04T10:22:00;7.30;;;2.50;;
83814;SDS011;73829;53.826;-3.034;2023-12-04T10:24:34;7.50;;;2.80;;
83814;SDS011;73829;53.826;-3.034;2023-12-04T10:27:07;9.10;;;2.70;;
83814;SDS011;73829;53.826;-3.034;2023-12-04T10:29:43;7.20;;;2.80;;
83814;SDS011;73829;53.826;-3.034;2023-12-04T10:32:15;7.20;;;2.70;;
83814;SDS011;73829;53.826;-3.034;2023-12-04T10:34:49;7.70;;;2.60;;
83814;SDS011;73829;53.826;-3.034;2023-12-04T10:37:20;8.40;;;2.60;;
83814;SDS011;73829;53.826;-3.034;2023-12-04T10:39:53;7.90;;;3.10;;
83814;SDS011;73829;53.826;-3.034;2023-12-04T10:44:55;6.80;;;2.50;;
83814;SDS011;73829;53.826;-3.034;2023-12-04T10:47:28;6.90;;;2.80;;
83814;SDS011;73829;53.826;-3.034;2023-12-04T10:49:59;6.60;;;2.70;;
83814;SDS011;73829;53.826;-3.034;2023-12-04T10:52:31;7.50;;;3.00;;
83814;SDS011;73829;53.826;-3.034;2023-12-04T10:55:03;6.30;;;2.70;;
83814;SDS011;73829;53.826;-3.034;2023-12-04T10:57:37;8.50;;;2.90;;
83814;SDS011;73829;53.826;-3.034;2023-12-04T11:00:10;8.70;;;2.50;;
83814;SDS011;73829;53.826;-3.034;2023-12-04T11:02:44;5.20;;;2.40;;
83814;SDS011;73829;53.826;-3.034;2023-12-04T11:05:17;6.10;;;2.30;;
83814;SDS011;73829;53.826;-3.034;2023-12-04T11:07:50;5.70;;;2.00;;
83814;SDS011;73829;53.826;-3.034;2023-12-04T11:10:23;7.90;;;2.20;;
83814;SDS011;73829;53.826;-3.034;2023-12-04T11:12:57;7.40;;;2.30;;
83814;SDS011;73829;53.826;-3.034;2023-12-04T11:15:33;5.10;;;2.10;;
83814;SDS011;73829;53.826;-3.034;2023-12-04T11:18:09;6.40;;;2.00;;
83814;SDS011;73829;53.826;-3.034;2023-12-04T11:20:46;5.70;;;2.10;;
83814;SDS011;73829;53.826;-3.034;2023-12-04T11:23:20;6.20;;;2.60;;
83814;SDS011;73829;53.826;-3.034;2023-12-04T11:25:51;5.90;;;2.20;;
83814;SDS011;73829;53.826;-3.034;2023-12-04T11:28:24;7.00;;;2.40;;
83814;SDS011;73829;53.826;-3.034;2023-12-04T11:30:56;7.50;;;2.50;;
83814;SDS011;73829;53.826;-3.034;2023-12-04T11:33:28;7.10;;;2.00;;
83814;SDS011;73829;53.826;-3.034;2023-12-04T11:36:09;6.00;;;1.70;;
83814;SDS011;73829;53.826;-3.034;2023-12-04T11:38:44;5.30;;;1.90;;
83814;SDS011;73829;53.826;-3.034;2023-12-04T11:41:17;6.20;;;1.90;;
83814;SDS011;73829;53.826;-3.034;2023-12-04T11:43:50;6.80;;;2.00;;
83814;SDS011;73829;53.826;-3.034;2023-12-04T11:46:21;5.40;;;1.80;;
83814;SDS011;73829;53.826;-3.034;2023-12-04T11:48:55;5.00;;;1.70;;
83814;SDS011;73829;53.826;-3.034;2023-12-04T11:51:46;7.40;;;1.70;;
83814;SDS011;73829;53.826;-3.034;2023-12-04T11:54:19;4.20;;;1.40;;
83814;SDS011;73829;53.826;-3.034;2023-12-04T11:57:00;4.50;;;1.60;;
83814;SDS011;73829;53.826;-3.034;2023-12-04T11:59:48;4.90;;;1.60;;
83814;SDS011;73829;53.826;-3.034;2023-12-04T12:02:19;6.10;;;1.70;;
83814;SDS011;73829;53.826;-3.034;2023-12-04T12:04:51;4.40;;;1.90;;
83814;SDS011;73829;53.826;-3.034;2023-12-04T12:07:24;4.30;;;1.30;;
83814;SDS011;73829;53.826;-3.034;2023-12-04T12:09:56;6.30;;;1.50;;
83814;SDS011;73829;53.826;-3.034;2023-12-04T12:12:27;4.30;;;1.50;;
83814;SDS011;73829;53.826;-3.034;2023-12-04T12:14:59;4.00;;;1.60;;
83814;SDS011;73829;53.826;-3.034;2023-12-04T12:19:59;5.00;;;1.60;;
83814;SDS011;73829;53.826;-3.034;2023-12-04T12:22:34;4.80;;;1.50;;
83814;SDS011;73829;53.826;-3.034;2023-12-04T12:25:09;5.90;;;1.60;;
83814;SDS011;73829;53.826;-3.034;2023-12-04T12:27:40;5.20;;;1.40;;
83814;SDS011;73829;53.826;-3.034;2023-12-04T12:30:12;5.50;;;1.20;;
83814;SDS011;73829;53.826;-3.034;2023-12-04T12:32:43;4.20;;;1.40;;
83814;SDS011;73829;53.826;-3.034;2023-12-04T12:35:14;4.70;;;1.30;;
83814;SDS011;73829;53.826;-3.034;2023-12-04T12:40:15;4.40;;;1.20;;
83814;SDS011;73829;53.826;-3.034;2023-12-04T12:45:15;3.80;;;1.30;;
83814;SDS011;73829;53.826;-3.034;2023-12-04T12:47:46;4.00;;;1.00;;
83814;SDS011;73829;53.826;-3.034;2023-12-04T12:50:17;5.50;;;1.40;;
83814;SDS011;73829;53.826;-3.034;2023-12-04T12:52:49;3.30;;;1.00;;
83814;SDS011;73829;53.826;-3.034;2023-12-04T12:57:53;4.40;;;1.20;;
83814;SDS011;73829;53.826;-3.034;2023-12-04T13:00:26;3.80;;;1.30;;
83814;SDS011;73829;53.826;-3.034;2023-12-04T13:02:57;4.60;;;1.40;;
83814;SDS011;73829;53.826;-3.034;2023-12-04T13:05:29;4.30;;;1.40;;
83814;SDS011;73829;53.826;-3.034;2023-12-04T13:08:00;4.20;;;1.30;;
83814;SDS011;73829;53.826;-3.034;2023-12-04T13:10:31;3.80;;;1.30;;
83814;SDS011;73829;53.826;-3.034;2023-12-04T13:15:31;4.10;;;1.30;;
83814;SDS011;73829;53.826;-3.034;2023-12-04T13:18:02;3.70;;;1.30;;
83814;SDS011;73829;53.826;-3.034;2023-12-04T13:20:34;4.60;;;1.60;;
83814;SDS011;73829;53.826;-3.034;2023-12-04T13:23:05;4.40;;;1.50;;
83814;SDS011;73829;53.826;-3.034;2023-12-04T13:25:36;4.20;;;1.30;;
83814;SDS011;73829;53.826;-3.034;2023-12-04T13:28:07;4.20;;;1.30;;
83814;SDS011;73829;53.826;-3.034;2023-12-04T13:33:07;2.90;;;1.00;;
83814;SDS011;73829;53.826;-3.034;2023-12-04T13:38:07;3.30;;;1.40;;
83814;SDS011;73829;53.826;-3.034;2023-12-04T13:40:41;4.80;;;1.30;;
83814;SDS011;73829;53.826;-3.034;2023-12-04T13:43:27;3.60;;;1.10;;
83814;SDS011;73829;53.826;-3.034;2023-12-04T13:46:16;5.20;;;1.70;;
83814;SDS011;73829;53.826;-3.034;2023-12-04T13:48:47;3.20;;;1.10;;
83814;SDS011;73829;53.826;-3.034;2023-12-04T13:51:18;4.60;;;1.30;;
83814;SDS011;73829;53.826;-3.034;2023-12-04T13:53:50;4.30;;;1.40;;
83814;SDS011;73829;53.826;-3.034;2023-12-04T13:56:24;3.70;;;1.30;;
83814;SDS011;73829;53.826;-3.034;2023-12-04T13:59:09;3.20;;;0.90;;
83814;SDS011;73829;53.826;-3.034;2023-12-04T14:01:46;3.60;;;1.20;;
83814;SDS011;73829;53.826;-3.034;2023-12-04T14:04:19;3.50;;;1.20;;
83814;SDS011;73829;53.826;-3.034;2023-12-04T14:06:52;2.80;;;1.00;;
83814;SDS011;73829;53.826;-3.034;2023-12-04T14:09:23;3.60;;;1.40;;
83814;SDS011;73829;53.826;-3.034;2023-12-04T14:11:54;3.10;;;1.10;;
83814;SDS011;73829;53.826;-3.034;2023-12-04T14:14:25;3.40;;;1.30;;
83814;SDS011;73829;53.826;-3.034;2023-12-04T14:16:57;3.40;;;1.30;;
83814;SDS011;73829;53.826;-3.034;2023-12-04T14:19:28;4.10;;;1.40;;
83814;SDS011;73829;53.826;-3.034;2023-12-04T14:22:00;3.00;;;1.10;;
83814;SDS011;73829;53.826;-3.034;2023-12-04T14:24:31;4.10;;;1.40;;
83814;SDS011;73829;53.826;-3.034;2023-12-04T14:27:03;3.60;;;1.20;;
83814;SDS011;73829;53.826;-3.034;2023-12-04T14:29:35;3.80;;;1.20;;
83814;SDS011;73829;53.826;-3.034;2023-12-04T14:32:08;4.00;;;1.30;;
83814;SDS011;73829;53.826;-3.034;2023-12-04T14:34:39;3.90;;;1.30;;
83814;SDS011;73829;53.826;-3.034;2023-12-04T14:37:09;3.80;;;1.40;;
83814;SDS011;73829;53.826;-3.034;2023-12-04T14:39:40;3.10;;;1.20;;
83814;SDS011;73829;53.826;-3.034;2023-12-04T14:42:13;4.10;;;1.40;;
83814;SDS011;73829;53.826;-3.034;2023-12-04T14:44:44;3.70;;;1.30;;
83814;SDS011;73829;53.826;-3.034;2023-12-04T14:47:15;3.30;;;1.10;;
83814;SDS011;73829;53.826;-3.034;2023-12-04T14:49:46;4.50;;;1.40;;
83814;SDS011;73829;53.826;-3.034;2023-12-04T14:52:22;3.90;;;1.30;;
83814;SDS011;73829;53.826;-3.034;2023-12-04T14:54:56;4.10;;;1.20;;
83814;SDS011;73829;53.826;-3.034;2023-12-04T14:57:53;3.80;;;1.20;;
83814;SDS011;73829;53.826;-3.034;2023-12-04T15:00:52;5.40;;;1.50;;
83814;SDS011;73829;53.826;-3.034;2023-12-04T15:03:40;4.30;;;1.30;;
83814;SDS011;73829;53.826;-3.034;2023-12-04T15:06:37;3.80;;;1.30;;
83814;SDS011;73829;53.826;-3.034;2023-12-04T15:09:30;3.30;;;1.10;;
83814;SDS011;73829;53.826;-3.034;2023-12-04T15:12:28;4.10;;;1.40;;
83814;SDS011;73829;53.826;-3.034;2023-12-04T15:15:17;4.00;;;1.30;;
83814;SDS011;73829;53.826;-3.034;2023-12-04T15:18:04;3.90;;;1.20;;
83814;SDS011;73829;53.826;-3.034;2023-12-04T15:20:52;4.10;;;1.30;;
83814;SDS011;73829;53.826;-3.034;2023-12-04T15:25:52;7.40;;;1.70;;
83814;SDS011;73829;53.826;-3.034;2023-12-04T15:28:23;4.40;;;1.10;;
83814;SDS011;73829;53.826;-3.034;2023-12-04T15:30:54;5.40;;;1.50;;
83814;SDS011;73829;53.826;-3.034;2023-12-04T15:33:26;3.80;;;1.40;;
83814;SDS011;73829;53.826;-3.034;2023-12-04T15:35:58;3.40;;;1.20;;
83814;SDS011;73829;53.826;-3.034;2023-12-04T15:38:29;3.40;;;1.10;;
83814;SDS011;73829;53.826;-3.034;2023-12-04T15:43:29;4.30;;;1.30;;
83814;SDS011;73829;53.826;-3.034;2023-12-04T15:46:00;4.00;;;1.20;;
83814;SDS011;73829;53.826;-3.034;2023-12-04T15:48:33;3.80;;;1.20;;
83814;SDS011;73829;53.826;-3.034;2023-12-04T15:51:06;4.00;;;1.20;;
83814;SDS011;73829;53.826;-3.034;2023-12-04T15:53:39;4.40;;;1.40;;
83814;SDS011;73829;53.826;-3.034;2023-12-04T15:56:10;5.30;;;1.20;;
83814;SDS011;73829;53.826;-3.034;2023-12-04T15:58:41;4.80;;;1.30;;
83814;SDS011;73829;53.826;-3.034;2023-12-04T16:03:41;3.60;;;1.30;;
83814;SDS011;73829;53.826;-3.034;2023-12-04T16:08:42;3.50;;;1.30;;
83814;SDS011;73829;53.826;-3.034;2023-12-04T16:13:45;4.10;;;1.40;;
83814;SDS011;73829;53.826;-3.034;2023-12-04T16:16:16;3.90;;;1.30;;
83814;SDS011;73829;53.826;-3.034;2023-12-04T16:18:47;4.20;;;1.30;;
83814;SDS011;73829;53.826;-3.034;2023-12-04T16:21:18;4.50;;;1.30;;
83814;SDS011;73829;53.826;-3.034;2023-12-04T16:23:49;4.00;;;1.30;;
83814;SDS011;73829;53.826;-3.034;2023-12-04T16:26:21;3.80;;;1.20;;
83814;SDS011;73829;53.826;-3.034;2023-12-04T16:28:52;3.80;;;1.40;;
83814;SDS011;73829;53.826;-3.034;2023-12-04T16:31:23;3.40;;;1.10;;
83814;SDS011;73829;53.826;-3.034;2023-12-04T16:33:54;4.20;;;1.30;;
83814;SDS011;73829;53.826;-3.034;2023-12-04T16:36:25;3.50;;;1.40;;
83814;SDS011;73829;53.826;-3.034;2023-12-04T16:38:56;4.00;;;1.30;;
83814;SDS011;73829;53.826;-3.034;2023-12-04T16:41:27;3.40;;;1.30;;
83814;SDS011;73829;53.826;-3.034;2023-12-04T16:43:58;2.30;;;0.90;;
83814;SDS011;73829;53.826;-3.034;2023-12-04T16:46:29;4.00;;;1.40;;
83814;SDS011;73829;53.826;-3.034;2023-12-04T16:49:00;3.90;;;1.30;;
83814;SDS011;73829;53.826;-3.034;2023-12-04T16:54:00;3.20;;;1.20;;
83814;SDS011;73829;53.826;-3.034;2023-12-04T16:56:32;3.60;;;1.50;;
83814;SDS011;73829;53.826;-3.034;2023-12-04T16:59:03;3.80;;;1.10;;
83814;SDS011;73829;53.826;-3.034;2023-12-04T17:01:33;3.70;;;1.40;;
83814;SDS011;73829;53.826;-3.034;2023-12-04T17:04:04;5.50;;;1.80;;
83814;SDS011;73829;53.826;-3.034;2023-12-04T17:06:35;6.00;;;1.20;;
83814;SDS011;73829;53.826;-3.034;2023-12-04T17:09:06;5.40;;;1.90;;
83814;SDS011;73829;53.826;-3.034;2023-12-04T17:11:42;5.90;;;1.70;;
83814;SDS011;73829;53.826;-3.034;2023-12-04T17:14:14;5.40;;;1.70;;
83814;SDS011;73829;53.826;-3.034;2023-12-04T17:16:44;5.00;;;2.00;;
83814;SDS011;73829;53.826;-3.034;2023-12-04T17:19:16;4.90;;;1.70;;
83814;SDS011;73829;53.826;-3.034;2023-12-04T17:21:47;5.50;;;1.60;;
83814;SDS011;73829;53.826;-3.034;2023-12-04T17:24:19;3.80;;;1.40;;
83814;SDS011;73829;53.826;-3.034;2023-12-04T17:29:20;5.10;;;1.30;;
83814;SDS011;73829;53.826;-3.034;2023-12-04T17:31:53;4.10;;;1.60;;
83814;SDS011;73829;53.826;-3.034;2023-12-04T17:36:53;3.90;;;1.20;;
83814;SDS011;73829;53.826;-3.034;2023-12-04T17:41:54;4.20;;;1.30;;
83814;SDS011;73829;53.826;-3.034;2023-12-04T17:44:25;3.20;;;1.30;;
83814;SDS011;73829;53.826;-3.034;2023-12-04T17:46:56;4.40;;;1.50;;
83814;SDS011;73829;53.826;-3.034;2023-12-04T17:49:27;4.40;;;1.40;;
83814;SDS011;73829;53.826;-3.034;2023-12-04T17:51:58;4.90;;;1.50;;
83814;SDS011;73829;53.826;-3.034;2023-12-04T17:54:29;3.70;;;1.20;;
83814;SDS011;73829;53.826;-3.034;2023-12-04T17:57:00;4.80;;;1.20;;
83814;SDS011;73829;53.826;-3.034;2023-12-04T17:59:31;3.60;;;1.10;;
83814;SDS011;73829;53.826;-3.034;2023-12-04T18:02:02;2.70;;;1.10;;
83814;SDS011;73829;53.826;-3.034;2023-12-04T18:04:33;3.40;;;1.00;;
83814;SDS011;73829;53.826;-3.034;2023-12-04T18:07:04;4.20;;;1.20;;
83814;SDS011;73829;53.826;-3.034;2023-12-04T18:09:35;3.50;;;1.20;;
83814;SDS011;73829;53.826;-3.034;2023-12-04T18:12:08;2.70;;;1.10;;
83814;SDS011;73829;53.826;-3.034;2023-12-04T18:14:39;3.60;;;1.50;;
83814;SDS011;73829;53.826;-3.034;2023-12-04T18:17:10;3.20;;;1.00;;